»·PEaware :: N2095K KSMX-KSBA

N2095K :: KSMX-KSBA

FLIGHT INFORMATION

Flight Status: Arrived
Operator: Privately registered:
United States
More flights under this callsign
Pilot: Vinicius U. (17612)
Aircraft: CESSNA 172 SKYHAWK
(C172)
More flights by this aircraft type
Origin: KSMX Santa Maria Pub/Capt Hancock
United States
Destination: KSBA Santa Barbara Mun
United States
More flights between these airports :: More routes between these airports
Route: +MQO
File this flight plan on PilotEdge
Remarks:
Altitude:
(Current/Filed)
6,000ft
Speed:
(Current/Filed)
125kts
Departed: 06-Jan-18 10:16 AM
Arrived: 06-Jan-18 10:48 AM
Distance/Time
Traveled:
42nm/0:32
Distance/Time
To Go:
Arrived

Flight Plot

Page will automatically refresh every two minutes.

Flight plan parsing failed; only flown route is shown


Map Options




Map Legend


Flown Route
Filed Route
Departure Airport
Arrival Airport
Navaid (VOR, NDB)
Fix

Horizontal Profiles

Position Reports

Time Latitude Longitude Heading Altitude Ground
Speed
06-Jan-18 10:08 34.896830 -120.446394 46 264ft 0kts
06-Jan-18 10:09 34.896830 -120.446394 46 264ft 0kts
06-Jan-18 10:10 34.896830 -120.446394 46 264ft 0kts
06-Jan-18 10:11 34.896830 -120.446394 46 264ft 0kts
06-Jan-18 10:12 34.896830 -120.446394 46 264ft 0kts
06-Jan-18 10:13 34.896830 -120.446394 46 264ft 0kts
06-Jan-18 10:14 34.896830 -120.446394 46 264ft 0kts
06-Jan-18 10:15 34.896830 -120.446393 46 264ft 0kts
06-Jan-18 10:16 34.896831 -120.446391 46 264ft 0kts
06-Jan-18 10:17 34.896832 -120.446390 46 264ft 0kts
06-Jan-18 10:18 34.894887 -120.445059 205 264ft 12kts
06-Jan-18 10:19 34.893397 -120.445278 197 264ft 0kts
06-Jan-18 10:20 34.893393 -120.445280 197 264ft 0kts
06-Jan-18 10:21 34.893391 -120.445280 197 264ft 0kts
06-Jan-18 10:22 34.894720 -120.448180 315 264ft 62kts
06-Jan-18 10:23 34.912382 -120.467980 312 681ft 93kts
06-Jan-18 10:24 34.934607 -120.485836 22 1192ft 104kts
06-Jan-18 10:25 34.930505 -120.458490 118 1722ft 96kts
06-Jan-18 10:26 34.918954 -120.429601 114 2334ft 96kts
06-Jan-18 10:27 34.908154 -120.400234 115 2869ft 96kts
06-Jan-18 10:28 34.896839 -120.368228 113 2961ft 106kts
06-Jan-18 10:29 34.884531 -120.336382 113 2930ft 105kts
06-Jan-18 10:30 34.874306 -120.303893 118 2995ft 101kts
06-Jan-18 10:31 34.863004 -120.272165 113 3029ft 102kts
06-Jan-18 10:32 34.846716 -120.250497 159 3668ft 85kts
06-Jan-18 10:33 34.824706 -120.239408 160 4329ft 84kts
06-Jan-18 10:34 34.803411 -120.226311 163 4915ft 88kts
06-Jan-18 10:35 34.780878 -120.214948 154 5494ft 88kts
06-Jan-18 10:36 34.758908 -120.201127 153 5972ft 93kts
06-Jan-18 10:37 34.733250 -120.189882 164 5954ft 100kts
06-Jan-18 10:38 34.708199 -120.179388 161 5934ft 101kts
06-Jan-18 10:39 34.682241 -120.166943 159 5903ft 99kts
06-Jan-18 10:40 34.656647 -120.156188 163 5955ft 94kts
06-Jan-18 10:41 34.631313 -120.144635 157 6000ft 97kts
06-Jan-18 10:42 34.606186 -120.130559 161 5986ft 99kts
06-Jan-18 10:43 34.581299 -120.115073 162 5942ft 100kts
06-Jan-18 10:44 34.555180 -120.103582 148 5932ft 102kts
06-Jan-18 10:45 34.538883 -120.081801 133 5775ft 107kts
06-Jan-18 10:46 34.519496 -120.042556 124 4964ft 118kts
06-Jan-18 10:47 34.505345 -120.014034 120 4358ft 119kts
06-Jan-18 10:48 34.485271 -119.974458 120 3566ft 117kts
06-Jan-18 10:49 34.470883 -119.940162 117 2845ft 112kts
06-Jan-18 10:50 34.459139 -119.913291 119 2280ft 103kts
06-Jan-18 10:51 34.444068 -119.884362 133 1642ft 94kts
06-Jan-18 10:52 34.435839 -119.862355 72 931ft 67kts
06-Jan-18 10:53 34.433874 -119.842354 166 185ft 59kts
06-Jan-18 10:54 34.426783 -119.839961 90 13ft 7kts
06-Jan-18 10:55 34.426785 -119.838978 88 13ft 15kts
06-Jan-18 10:56 34.423852 -119.836947 79 13ft 8kts
06-Jan-18 10:57 34.422455 -119.835517 72 13ft 4kts
06-Jan-18 10:58 34.422470 -119.835455 72 13ft 0kts
06-Jan-18 10:59 34.422470 -119.835455 72 13ft 0kts
06-Jan-18 11:00 34.422470 -119.835455 72 13ft 0kts
06-Jan-18 11:01 34.422470 -119.835455 72 13ft 0kts

Navigation Log

Ident Type
Flight plan parsing failed, navigation log unavailable